createdAt,value
2019-01-10T00:01:01.970Z,5.23
2019-01-10T00:03:30.494Z,6.20
2019-01-10T00:06:00.258Z,5.37
2019-01-10T00:08:28.814Z,7.57
2019-01-10T00:10:57.640Z,5.43
2019-01-10T00:13:26.518Z,5.50
2019-01-10T00:16:04.803Z,5.17
2019-01-10T00:18:34.182Z,5.27
2019-01-10T00:21:02.723Z,9.00
2019-01-10T00:23:31.300Z,5.70
2019-01-10T00:25:59.745Z,5.17
2019-01-10T00:28:28.159Z,6.90
2019-01-10T00:30:56.627Z,4.27
2019-01-10T00:33:25.255Z,6.33
2019-01-10T00:35:53.981Z,9.40
2019-01-10T00:38:22.495Z,5.60
2019-01-10T00:40:51.010Z,7.07
2019-01-10T00:43:19.409Z,10.00
2019-01-10T00:45:47.864Z,3.67
2019-01-10T00:48:16.284Z,8.00
2019-01-10T00:50:44.678Z,5.70
2019-01-10T00:53:13.462Z,8.33
2019-01-10T00:55:41.912Z,4.23
2019-01-10T00:58:10.815Z,8.13
2019-01-10T01:00:39.336Z,4.50
2019-01-10T01:03:07.759Z,5.47
2019-01-10T01:05:36.214Z,3.60
2019-01-10T01:08:04.996Z,8.20
2019-01-10T01:10:33.452Z,3.50
2019-01-10T01:13:01.940Z,6.40
2019-01-10T01:15:30.321Z,3.07
2019-01-10T01:17:58.672Z,9.03
2019-01-10T01:20:27.096Z,3.57
2019-01-10T01:22:55.485Z,15.27
2019-01-10T01:25:23.969Z,5.53
2019-01-10T01:27:52.409Z,6.43
2019-01-10T01:30:23.116Z,8.50
2019-01-10T01:32:51.565Z,6.70
2019-01-10T01:35:21.662Z,3.70
2019-01-10T01:37:50.289Z,5.20
2019-01-10T01:40:20.239Z,4.57
2019-01-10T01:42:48.880Z,5.20
2019-01-10T01:45:18.871Z,4.07
2019-01-10T01:47:47.738Z,5.93
2019-01-10T01:50:21.328Z,5.00
2019-01-10T01:52:49.782Z,6.47
2019-01-10T01:55:18.195Z,5.33
2019-01-10T01:57:46.724Z,7.50
2019-01-10T02:00:18.229Z,8.30
2019-01-10T02:02:46.612Z,4.23
2019-01-10T02:05:15.330Z,4.47
2019-01-10T02:07:43.851Z,4.30
2019-01-10T02:10:15.540Z,7.77
2019-01-10T02:12:44.059Z,6.03
2019-01-10T02:15:14.305Z,8.57
2019-01-10T02:17:48.831Z,4.60
2019-01-10T02:20:13.175Z,7.23
2019-01-10T02:22:41.697Z,3.17
2019-01-10T02:25:12.111Z,6.03
2019-01-10T02:27:40.634Z,4.87
2019-01-10T02:30:15.249Z,3.90
2019-01-10T02:32:43.694Z,2.90
2019-01-10T02:35:12.128Z,5.23
2019-01-10T02:37:40.532Z,4.47
2019-01-10T02:40:09.860Z,3.47
2019-01-10T02:42:38.306Z,3.23
2019-01-10T02:45:10.275Z,5.13
2019-01-10T02:47:38.615Z,8.57
2019-01-10T02:50:13.168Z,5.97
2019-01-10T02:52:41.601Z,4.27
2019-01-10T02:55:10.409Z,5.30
2019-01-10T02:57:38.826Z,4.20
2019-01-10T03:00:19.322Z,3.23
2019-01-10T03:02:48.023Z,4.90
2019-01-10T03:05:16.538Z,6.57
2019-01-10T03:07:44.949Z,2.57
2019-01-10T03:10:16.507Z,2.97
2019-01-10T03:12:44.925Z,3.20
2019-01-10T03:15:13.484Z,3.67
2019-01-10T03:17:41.976Z,4.57
2019-01-10T03:20:13.985Z,6.07
2019-01-10T03:22:42.495Z,3.97
2019-01-10T03:25:10.920Z,4.97
2019-01-10T03:27:39.360Z,3.23
2019-01-10T03:30:11.225Z,8.63
2019-01-10T03:32:39.596Z,10.07
2019-01-10T03:35:09.625Z,10.20
2019-01-10T03:37:37.968Z,8.43
2019-01-10T03:40:11.793Z,10.33
2019-01-10T03:42:40.192Z,10.00
2019-01-10T03:45:11.346Z,8.20
2019-01-10T03:47:39.725Z,7.80
2019-01-10T03:50:10.617Z,8.87
2019-01-10T03:52:39.063Z,7.53
2019-01-10T03:55:07.777Z,6.30
2019-01-10T03:57:36.214Z,3.20
2019-01-10T04:00:07.731Z,5.87
2019-01-10T04:02:36.259Z,6.83
2019-01-10T04:05:05.342Z,2.83
2019-01-10T04:07:33.789Z,6.43
2019-01-10T04:10:02.141Z,3.93
2019-01-10T04:12:30.687Z,3.50
2019-01-10T04:14:59.198Z,4.00
2019-01-10T04:17:27.577Z,6.47
2019-01-10T04:19:55.916Z,5.53
2019-01-10T04:22:24.303Z,8.17
2019-01-10T04:24:52.718Z,2.90
2019-01-10T04:27:21.180Z,3.90
2019-01-10T04:29:49.610Z,5.50
2019-01-10T04:32:17.979Z,4.07
2019-01-10T04:34:46.323Z,2.87
2019-01-10T04:37:14.712Z,5.80
2019-01-10T04:39:43.057Z,5.53
2019-01-10T04:42:11.445Z,3.27
2019-01-10T04:44:39.853Z,8.23
2019-01-10T04:47:08.209Z,6.07
2019-01-10T04:49:36.592Z,3.10
2019-01-10T04:52:05.006Z,4.03
2019-01-10T04:54:38.208Z,5.83
2019-01-10T04:57:03.530Z,4.80
2019-01-10T04:59:31.941Z,5.00
2019-01-10T05:02:00.254Z,5.10
2019-01-10T05:04:28.641Z,5.30
2019-01-10T05:06:56.990Z,6.57
2019-01-10T05:09:25.382Z,3.80
2019-01-10T05:11:53.729Z,6.33
2019-01-10T05:14:22.118Z,3.10
2019-01-10T05:16:50.468Z,7.07
2019-01-10T05:19:18.852Z,7.43
2019-01-10T05:21:47.200Z,7.60
2019-01-10T05:24:15.654Z,5.20
2019-01-10T05:26:44.064Z,4.77
2019-01-10T05:29:12.439Z,4.40
2019-01-10T05:31:40.852Z,6.10
2019-01-10T05:34:09.234Z,4.60
2019-01-10T05:36:37.631Z,7.03
2019-01-10T05:39:08.078Z,5.23
2019-01-10T05:41:36.565Z,4.07
2019-01-10T05:44:05.029Z,7.47
2019-01-10T05:46:33.446Z,7.83
2019-01-10T05:49:01.903Z,6.57
2019-01-10T05:51:30.271Z,8.90
2019-01-10T05:53:59.533Z,4.47
2019-01-10T05:56:28.061Z,7.03
2019-01-10T05:58:56.430Z,7.33
2019-01-10T06:01:24.870Z,9.03
2019-01-10T06:03:53.748Z,4.20
2019-01-10T06:06:22.317Z,8.70
2019-01-10T06:08:50.757Z,4.93
2019-01-10T06:11:19.140Z,6.03
2019-01-10T06:13:47.489Z,8.67
2019-01-10T06:16:15.949Z,7.43
2019-01-10T06:18:44.367Z,9.93
2019-01-10T06:21:12.752Z,5.23
2019-01-10T06:23:41.188Z,5.13
2019-01-10T06:26:09.647Z,4.33
2019-01-10T06:28:38.041Z,7.30
2019-01-10T06:31:06.482Z,6.73
2019-01-10T06:33:35.004Z,5.37
2019-01-10T06:36:03.453Z,9.57
2019-01-10T06:38:31.876Z,6.17
2019-01-10T06:41:00.333Z,5.17
2019-01-10T06:43:28.692Z,8.03
2019-01-10T06:45:57.074Z,9.80
2019-01-10T06:48:25.448Z,7.63
2019-01-10T06:50:53.828Z,14.20
2019-01-10T06:53:22.251Z,6.87
2019-01-10T06:55:50.692Z,9.63
2019-01-10T06:58:19.053Z,7.20
2019-01-10T07:00:47.504Z,7.43
2019-01-10T07:03:15.922Z,7.33
2019-01-10T07:05:47.791Z,5.60
2019-01-10T07:08:16.217Z,16.97
2019-01-10T07:10:44.566Z,8.53
2019-01-10T07:13:12.947Z,7.47
2019-01-10T07:15:41.462Z,6.73
2019-01-10T07:18:09.920Z,8.53
2019-01-10T07:20:38.508Z,12.90
2019-01-10T07:23:07.044Z,10.17
2019-01-10T07:25:35.465Z,23.10
2019-01-10T07:28:24.792Z,16.60
2019-01-10T07:30:54.597Z,16.50
2019-01-10T07:33:23.061Z,11.43
2019-01-10T07:35:55.713Z,18.23
2019-01-10T07:38:24.111Z,13.67
2019-01-10T07:40:52.480Z,7.87
2019-01-10T07:43:22.197Z,13.60
2019-01-10T07:45:50.625Z,10.10
2019-01-10T07:48:19.022Z,9.33
2019-01-10T07:50:47.456Z,12.13
2019-01-10T07:53:15.908Z,13.07
2019-01-10T07:55:44.335Z,11.80
2019-01-10T07:58:12.737Z,19.93
2019-01-10T08:00:41.112Z,18.27
2019-01-10T08:03:09.633Z,18.73
2019-01-10T08:05:38.073Z,18.10
2019-01-10T08:08:06.897Z,19.33
2019-01-10T08:10:35.424Z,11.90
2019-01-10T08:13:04.119Z,10.87
2019-01-10T08:15:32.534Z,11.07
2019-01-10T08:18:01.057Z,10.97
2019-01-10T08:20:29.406Z,8.47
2019-01-10T08:22:57.793Z,7.13
2019-01-10T08:25:26.400Z,11.60
2019-01-10T08:27:54.920Z,10.73
2019-01-10T08:30:23.819Z,10.53
2019-01-10T08:32:52.276Z,7.30
2019-01-10T08:35:22.623Z,7.73
2019-01-10T08:37:51.138Z,9.47
2019-01-10T08:40:19.717Z,9.30
2019-01-10T08:42:50.271Z,11.20
2019-01-10T08:45:21.735Z,6.17
2019-01-10T08:47:50.656Z,7.20
2019-01-10T08:50:21.505Z,8.47
2019-01-10T08:52:49.970Z,10.50
2019-01-10T08:55:18.489Z,7.37
2019-01-10T08:57:46.911Z,9.20
2019-01-10T09:00:21.140Z,7.37
2019-01-10T09:02:52.838Z,11.23
2019-01-10T09:05:21.675Z,10.27
2019-01-10T09:07:50.315Z,7.47
2019-01-10T09:10:21.499Z,11.53
2019-01-10T09:12:50.346Z,11.93
2019-01-10T09:15:25.304Z,9.80
2019-01-10T09:17:51.736Z,10.53
2019-01-10T09:20:22.909Z,8.97
2019-01-10T09:22:51.678Z,8.97
2019-01-10T09:25:20.592Z,7.80
2019-01-10T09:27:49.265Z,8.50
2019-01-10T09:30:19.410Z,11.40
2019-01-10T09:32:48.281Z,9.37
2019-01-10T09:35:17.667Z,7.33
2019-01-10T09:37:46.296Z,10.47
2019-01-10T09:40:17.450Z,6.90
2019-01-10T09:42:45.939Z,7.00
2019-01-10T09:45:17.508Z,10.00
2019-01-10T09:47:47.720Z,9.73
2019-01-10T09:50:20.929Z,8.47
2019-01-10T09:52:49.808Z,11.43
2019-01-10T09:55:18.668Z,7.00
2019-01-10T09:57:48.884Z,9.57
2019-01-10T10:00:25.908Z,8.90
2019-01-10T10:02:56.342Z,7.43
2019-01-10T10:05:25.209Z,7.47
2019-01-10T10:07:53.695Z,8.53
2019-01-10T10:10:22.541Z,7.33
2019-01-10T10:12:51.362Z,8.27
2019-01-10T10:15:21.023Z,9.20
2019-01-10T10:17:49.895Z,7.80
2019-01-10T10:20:22.037Z,7.97
2019-01-10T10:22:51.778Z,10.40
2019-01-10T10:25:23.145Z,8.97
2019-01-10T10:27:53.371Z,8.17
2019-01-10T10:30:22.492Z,11.20
2019-01-10T10:32:51.607Z,8.53
2019-01-10T10:35:21.343Z,15.53
2019-01-10T10:37:52.930Z,9.03
2019-01-10T10:40:21.677Z,10.50
2019-01-10T10:42:54.294Z,9.20
2019-01-10T10:45:24.886Z,9.50
2019-01-10T10:47:54.092Z,11.33
2019-01-10T10:50:25.552Z,8.63
2019-01-10T10:52:54.046Z,9.70
2019-01-10T10:55:25.295Z,7.93
2019-01-10T10:57:54.187Z,8.80
2019-01-10T11:00:25.312Z,7.73
2019-01-10T11:02:53.703Z,8.03
2019-01-10T11:05:22.449Z,8.53
2019-01-10T11:07:50.907Z,7.80
2019-01-10T11:10:21.236Z,8.27
2019-01-10T11:12:50.086Z,6.77
2019-01-10T11:15:19.518Z,6.60
2019-01-10T11:17:48.343Z,6.03
2019-01-10T11:20:21.871Z,6.90
2019-01-10T11:22:51.416Z,5.63
2019-01-10T11:25:23.288Z,5.90
2019-01-10T11:27:52.037Z,7.10
2019-01-10T11:30:22.148Z,6.07
2019-01-10T11:32:51.011Z,8.43
2019-01-10T11:35:20.286Z,5.23
2019-01-10T11:37:48.873Z,7.50
2019-01-10T11:40:19.275Z,5.67
2019-01-10T11:42:47.902Z,5.43
2019-01-10T11:45:18.534Z,5.70
2019-01-10T11:47:47.024Z,5.43
2019-01-10T11:50:16.614Z,5.13
2019-01-10T11:52:45.243Z,4.73
2019-01-10T11:55:13.938Z,6.87
2019-01-10T11:57:42.623Z,4.57
2019-01-10T12:00:19.772Z,4.80
2019-01-10T12:02:48.219Z,5.67
2019-01-10T12:05:16.652Z,4.20
2019-01-10T12:07:45.099Z,4.20
2019-01-10T12:10:13.591Z,4.90
2019-01-10T12:12:42.372Z,4.90
2019-01-10T12:15:12.171Z,5.00
2019-01-10T12:17:40.627Z,4.43
2019-01-10T12:20:12.016Z,4.40
2019-01-10T12:22:40.553Z,6.00
2019-01-10T12:25:11.451Z,4.10
2019-01-10T12:27:39.903Z,4.63
2019-01-10T12:30:14.598Z,4.63
2019-01-10T12:32:43.003Z,4.83
2019-01-10T12:35:11.426Z,3.87
2019-01-10T12:37:39.818Z,4.00
2019-01-10T12:40:12.692Z,3.10
2019-01-10T12:42:41.190Z,4.60
2019-01-10T12:45:17.754Z,3.83
2019-01-10T12:47:46.516Z,5.03
2019-01-10T12:50:20.310Z,5.17
2019-01-10T12:52:48.775Z,5.70
2019-01-10T12:55:17.210Z,4.50
2019-01-10T12:57:45.626Z,3.47
2019-01-10T13:00:17.125Z,6.03
2019-01-10T13:02:45.547Z,4.33
2019-01-10T13:05:14.930Z,5.33
2019-01-10T13:07:44.593Z,5.50
2019-01-10T13:10:17.490Z,6.10
2019-01-10T13:12:46.501Z,6.87
2019-01-10T13:15:17.772Z,3.97
2019-01-10T13:17:46.250Z,7.00
2019-01-10T13:20:14.776Z,4.67
2019-01-10T13:22:43.199Z,5.17
2019-01-10T13:25:14.185Z,4.60
2019-01-10T13:27:42.755Z,4.67
2019-01-10T13:30:14.314Z,5.13
2019-01-10T13:32:44.830Z,4.90
2019-01-10T13:35:14.292Z,3.63
2019-01-10T13:37:47.674Z,5.50
2019-01-10T13:40:18.255Z,4.37
2019-01-10T13:42:47.078Z,5.37
2019-01-10T13:45:17.923Z,6.10
2019-01-10T13:47:48.731Z,4.90
2019-01-10T13:50:23.110Z,3.90
2019-01-10T13:52:51.964Z,4.33
2019-01-10T13:55:22.592Z,4.83
2019-01-10T13:57:51.695Z,4.00
2019-01-10T14:00:25.463Z,4.43
2019-01-10T14:02:54.454Z,6.33
2019-01-10T14:05:24.869Z,5.77
2019-01-10T14:08:00.454Z,3.90
2019-01-10T14:10:30.681Z,5.70
2019-01-10T14:12:59.702Z,7.17
2019-01-10T14:15:30.006Z,6.47
2019-01-10T14:17:59.041Z,7.40
2019-01-10T14:20:27.720Z,7.30
2019-01-10T14:22:56.752Z,7.20
2019-01-10T14:25:27.361Z,5.37
2019-01-10T14:27:59.628Z,8.77
2019-01-10T14:30:34.483Z,5.60
2019-01-10T14:33:03.974Z,6.70
2019-01-10T14:35:34.711Z,5.27
2019-01-10T14:38:03.548Z,4.50
2019-01-10T14:40:32.471Z,4.97
2019-01-10T14:43:02.727Z,5.73
2019-01-10T14:45:33.495Z,5.10
2019-01-10T14:48:04.862Z,5.17
2019-01-10T14:50:33.392Z,5.17
2019-01-10T14:53:02.281Z,7.07
2019-01-10T14:55:31.039Z,6.50
2019-01-10T14:58:00.185Z,7.33
2019-01-10T15:00:29.121Z,5.23
2019-01-10T15:02:59.299Z,7.67
2019-01-10T15:05:34.303Z,6.37
2019-01-10T15:08:00.314Z,5.93
2019-01-10T15:10:29.052Z,7.77
2019-01-10T15:12:58.994Z,6.63
2019-01-10T15:15:29.114Z,6.03
2019-01-10T15:17:58.054Z,5.80
2019-01-10T15:20:30.180Z,5.80
2019-01-10T15:22:59.125Z,6.63
2019-01-10T15:25:27.947Z,5.73
2019-01-10T15:27:56.680Z,7.73
2019-01-10T15:30:26.951Z,7.10
2019-01-10T15:32:55.497Z,8.63
2019-01-10T15:35:24.586Z,10.40
2019-01-10T15:37:53.375Z,9.87
2019-01-10T15:40:24.649Z,8.60
2019-01-10T15:42:53.175Z,8.83
2019-01-10T15:45:22.142Z,7.70
2019-01-10T15:47:50.842Z,8.37
2019-01-10T15:50:21.567Z,8.17
2019-01-10T15:52:50.782Z,7.67
2019-01-10T15:55:21.277Z,11.07
2019-01-10T15:57:50.513Z,8.80
2019-01-10T16:00:24.621Z,10.87
2019-01-10T16:02:54.973Z,17.40
2019-01-10T16:05:23.994Z,9.60
2019-01-10T16:07:52.912Z,13.20
2019-01-10T16:10:21.597Z,13.03
2019-01-10T16:12:50.562Z,11.67
2019-01-10T16:15:21.526Z,11.80
2019-01-10T16:17:50.262Z,13.73
2019-01-10T16:20:18.875Z,24.13
2019-01-10T16:22:47.800Z,14.70
2019-01-10T16:25:19.573Z,21.47
2019-01-10T16:27:48.226Z,17.07
2019-01-10T16:30:25.034Z,11.13
2019-01-10T16:32:53.556Z,10.50
2019-01-10T16:35:21.972Z,8.90
2019-01-10T16:37:50.919Z,10.63
2019-01-10T16:40:19.758Z,10.07
2019-01-10T16:42:48.181Z,12.97
2019-01-10T16:45:28.916Z,16.87
2019-01-10T16:47:57.346Z,20.40
2019-01-10T16:50:26.241Z,19.10
2019-01-10T16:52:55.092Z,19.33
2019-01-10T16:55:23.839Z,17.83
2019-01-10T16:57:52.728Z,16.00
2019-01-10T17:00:29.603Z,19.47
2019-01-10T17:02:58.440Z,24.53
2019-01-10T17:05:26.977Z,28.73
2019-01-10T17:07:55.444Z,25.63
2019-01-10T17:10:23.906Z,23.13
2019-01-10T17:12:52.345Z,23.67
2019-01-10T17:15:21.555Z,29.50
2019-01-10T17:17:50.022Z,26.87
2019-01-10T17:20:24.102Z,30.97
2019-01-10T17:22:52.468Z,23.10
2019-01-10T17:25:21.141Z,19.53
2019-01-10T17:27:49.834Z,22.93
2019-01-10T17:30:26.509Z,20.07
2019-01-10T17:32:55.588Z,19.60
2019-01-10T17:35:26.437Z,21.67
2019-01-10T17:37:55.840Z,19.47
2019-01-10T17:40:24.641Z,13.37
2019-01-10T17:42:53.313Z,16.40
2019-01-10T17:45:25.533Z,16.87
2019-01-10T17:47:54.070Z,20.13
2019-01-10T17:50:22.806Z,19.93
2019-01-10T17:52:51.896Z,19.13
2019-01-10T17:55:20.385Z,16.30
2019-01-10T17:57:48.817Z,54.60
2019-01-10T18:00:20.528Z,18.63
2019-01-10T18:02:51.002Z,15.10
2019-01-10T18:05:19.337Z,14.43
2019-01-10T18:07:47.823Z,16.53
2019-01-10T18:10:19.579Z,15.33
2019-01-10T18:12:48.554Z,12.23
2019-01-10T18:15:20.072Z,17.47
2019-01-10T18:17:50.664Z,13.20
2019-01-10T18:20:32.780Z,11.23
2019-01-10T18:23:01.276Z,13.00
2019-01-10T18:25:29.692Z,13.93
2019-01-10T18:27:58.149Z,13.07
2019-01-10T18:30:26.594Z,13.67
2019-01-10T18:32:58.794Z,14.80
2019-01-10T18:35:27.752Z,16.10
2019-01-10T18:37:58.345Z,12.23
2019-01-10T18:40:26.788Z,12.07
2019-01-10T18:42:56.025Z,11.23
2019-01-10T18:45:27.564Z,14.83
2019-01-10T18:47:57.188Z,12.53
2019-01-10T18:50:26.093Z,13.93
2019-01-10T18:52:55.014Z,18.33
2019-01-10T18:55:23.959Z,24.10
2019-01-10T18:57:52.432Z,23.00
2019-01-10T19:00:25.533Z,20.80
2019-01-10T19:02:54.059Z,24.03
2019-01-10T19:05:22.487Z,20.40
2019-01-10T19:07:51.107Z,18.73
2019-01-10T19:10:21.849Z,17.40
2019-01-10T19:12:50.844Z,15.47
2019-01-10T19:15:20.030Z,18.70
2019-01-10T19:17:48.572Z,19.83
2019-01-10T19:20:22.668Z,17.93
2019-01-10T19:22:51.199Z,20.03
2019-01-10T19:25:20.131Z,19.27
2019-01-10T19:27:48.598Z,18.20
2019-01-10T19:30:25.413Z,69.93
2019-01-10T19:32:54.655Z,155.47
2019-01-10T19:35:23.010Z,146.17
2019-01-10T19:37:51.439Z,70.90
2019-01-10T19:40:22.440Z,65.47
2019-01-10T19:42:50.949Z,57.43
2019-01-10T19:45:21.083Z,74.07
2019-01-10T19:47:51.615Z,81.37
2019-01-10T19:50:25.090Z,78.03
2019-01-10T19:52:53.597Z,80.63
2019-01-10T19:55:23.117Z,63.20
2019-01-10T19:57:52.923Z,53.47
2019-01-10T20:00:27.302Z,36.23
2019-01-10T20:02:55.864Z,22.80
2019-01-10T20:05:24.370Z,46.50
2019-01-10T20:07:52.874Z,35.33
2019-01-10T20:10:21.500Z,35.00
2019-01-10T20:12:50.318Z,36.00
2019-01-10T20:15:18.889Z,40.07
2019-01-10T20:17:47.395Z,35.50
2019-01-10T20:20:25.149Z,35.27
2019-01-10T20:22:53.742Z,37.37
2019-01-10T20:25:22.211Z,31.77
2019-01-10T20:27:51.586Z,28.07
2019-01-10T20:30:20.048Z,27.47
2019-01-10T20:32:48.477Z,26.27
2019-01-10T20:35:18.322Z,26.03
2019-01-10T20:37:46.820Z,29.60
2019-01-10T20:40:17.266Z,25.90
2019-01-10T20:42:45.690Z,28.87
2019-01-10T20:45:14.618Z,26.67
2019-01-10T20:47:43.314Z,23.17
2019-01-10T20:50:16.184Z,24.87
2019-01-10T20:52:44.609Z,27.77
2019-01-10T20:55:17.318Z,24.27
2019-01-10T20:57:47.551Z,22.83
2019-01-10T21:00:21.899Z,20.83
2019-01-10T21:02:50.908Z,22.47
2019-01-10T21:05:19.381Z,21.43
2019-01-10T21:07:49.454Z,19.80
2019-01-10T21:10:19.909Z,23.40
2019-01-10T21:12:48.465Z,19.60
2019-01-10T21:15:35.558Z,21.87
2019-01-10T21:18:04.064Z,21.67
2019-01-10T21:20:32.459Z,25.07
2019-01-10T21:23:01.079Z,23.83
2019-01-10T21:25:31.161Z,16.10
2019-01-10T21:28:00.773Z,17.60
2019-01-10T21:30:29.226Z,17.17
2019-01-10T21:32:57.608Z,18.53
2019-01-10T21:35:26.073Z,16.73
2019-01-10T21:37:54.429Z,22.27
2019-01-10T21:40:25.658Z,19.90
2019-01-10T21:42:54.323Z,17.50
2019-01-10T21:45:23.804Z,19.67
2019-01-10T21:47:52.451Z,23.33
2019-01-10T21:50:25.839Z,19.30
2019-01-10T21:52:54.688Z,15.83
2019-01-10T21:55:23.970Z,15.43
2019-01-10T21:57:53.582Z,19.40
2019-01-10T22:00:31.649Z,16.67
2019-01-10T22:03:00.784Z,20.50
2019-01-10T22:05:29.249Z,24.47
2019-01-10T22:07:57.714Z,22.77
2019-01-10T22:10:26.087Z,22.63
2019-01-10T22:12:54.708Z,16.20
2019-01-10T22:15:25.232Z,18.83
2019-01-10T22:17:54.238Z,18.13
2019-01-10T22:20:23.317Z,21.50
2019-01-10T22:22:52.832Z,20.53
2019-01-10T22:25:21.576Z,19.07
2019-01-10T22:27:50.807Z,18.03
2019-01-10T22:30:21.881Z,22.47
2019-01-10T22:32:51.732Z,19.30
2019-01-10T22:35:25.485Z,21.73
2019-01-10T22:37:55.654Z,19.83
2019-01-10T22:40:24.702Z,21.63
2019-01-10T22:42:54.551Z,22.23
2019-01-10T22:45:23.932Z,19.07
2019-01-10T22:47:52.920Z,16.13
2019-01-10T22:50:21.670Z,17.40
2019-01-10T22:52:51.162Z,17.60
2019-01-10T22:55:20.130Z,19.93
2019-01-10T22:57:51.902Z,16.97
2019-01-10T23:00:32.232Z,15.73
2019-01-10T23:03:08.066Z,15.93
2019-01-10T23:05:41.869Z,18.40
2019-01-10T23:08:10.685Z,17.60
2019-01-10T23:10:40.060Z,21.00
2019-01-10T23:13:08.686Z,20.17
2019-01-10T23:15:37.578Z,16.63
2019-01-10T23:18:06.983Z,17.10
2019-01-10T23:20:40.257Z,17.47
2019-01-10T23:23:17.363Z,17.93
2019-01-10T23:25:50.480Z,17.67
2019-01-10T23:28:19.432Z,16.27
2019-01-10T23:30:59.173Z,24.80
2019-01-10T23:33:28.681Z,18.53
2019-01-10T23:36:01.991Z,20.23
2019-01-10T23:38:31.118Z,20.97
2019-01-10T23:41:00.343Z,20.80
2019-01-10T23:43:29.346Z,21.83
2019-01-10T23:45:58.301Z,19.90
2019-01-10T23:48:27.523Z,21.83
2019-01-10T23:50:56.390Z,20.30
2019-01-10T23:53:25.387Z,21.57
2019-01-10T23:55:56.315Z,24.57
2019-01-10T23:58:26.507Z,22.83
